SBI7520 ZWWW-UTAA
Flight info
| Callsign | SBI7520 |
|---|---|
| Flight time | 3h 42m |
| Altitude | 36000 |
| Route | ZWWW N0448F360 NIXE4L NIXER MENOD W119 LIMDO A468 KAMUD L141 TADOT MALEX ZEZAM MANAT B376 LBA A117 DUTAR URABA URA11A UGMUR CI11R FI11R RW11R UTAA |
| Aircraft | B738/M-SDGIWZ/S |
Departure
| Time | 2026-04-24 18:57 |
|---|---|
| Airport | Ürümqi Tianshan International Airport (ZWWW) |
Arrival
| Time | 2026-04-24 22:39 |
|---|---|
| Airport | Ashgabat International Airport (UTAA) |
| Time | Latitude | Longitude | Altitude | Speed | Heading |
|---|---|---|---|---|---|
| 2026-04-24 18:54 | 43.90191 | 87.45802 | 2134 ft | 11 kts | 261° |
| 2026-04-24 18:55 | 43.90142 | 87.45571 | 2134 ft | 13 kts | 253° |
| 2026-04-24 18:55 | 43.90116 | 87.45445 | 2134 ft | 14 kts | 253° |
| 2026-04-24 18:55 | 43.90137 | 87.45340 | 2134 ft | 12 kts | 335° |
| 2026-04-24 18:56 | 43.90221 | 87.45301 | 2134 ft | 13 kts | 349° |
| 2026-04-24 18:56 | 43.90277 | 87.45370 | 2134 ft | 13 kts | 71° |
| 2026-04-24 18:56 | 43.90371 | 87.45807 | 2134 ft | 83 kts | 73° |
| 2026-04-24 18:56 | 43.90594 | 87.46858 | 2134 ft | 143 kts | 72° |
| 2026-04-24 18:57 | 43.90919 | 87.48428 | 2172 ft | 188 kts | 72° |
| 2026-04-24 18:57 | 43.91279 | 87.50241 | 2503 ft | 207 kts | 72° |
| 2026-04-24 18:57 | 43.91680 | 87.52238 | 2975 ft | 221 kts | 72° |
| 2026-04-24 18:57 | 43.92112 | 87.54324 | 3484 ft | 232 kts | 72° |
| 2026-04-24 18:58 | 43.92572 | 87.56600 | 3783 ft | 257 kts | 73° |
| 2026-04-24 18:58 | 43.93044 | 87.59060 | 4174 ft | 270 kts | 73° |
| 2026-04-24 18:58 | 43.93501 | 87.61560 | 4573 ft | 270 kts | 75° |
| 2026-04-24 18:58 | 43.93883 | 87.64151 | 4736 ft | 273 kts | 76° |
| 2026-04-24 18:59 | 43.94263 | 87.66693 | 4990 ft | 270 kts | 78° |
| 2026-04-24 18:59 | 43.94622 | 87.69267 | 5335 ft | 272 kts | 79° |
| 2026-04-24 18:59 | 43.94680 | 87.71895 | 5499 ft | 281 kts | 103° |
| 2026-04-24 18:59 | 43.93703 | 87.74301 | 6012 ft | 293 kts | 140° |
| 2026-04-24 19:00 | 43.91996 | 87.75536 | 7097 ft | 280 kts | 167° |
| 2026-04-24 19:00 | 43.90073 | 87.76038 | 7815 ft | 283 kts | 180° |
| 2026-04-24 19:00 | 43.88177 | 87.75487 | 8500 ft | 281 kts | 212° |
| 2026-04-24 19:00 | 43.86641 | 87.73904 | 9351 ft | 276 kts | 223° |
| 2026-04-24 19:01 | 43.85332 | 87.71944 | 9871 ft | 282 kts | 244° |
| 2026-04-24 19:01 | 43.84714 | 87.69460 | 10700 ft | 275 kts | 258° |
| 2026-04-24 19:01 | 43.84236 | 87.66858 | 11094 ft | 290 kts | 256° |
| 2026-04-24 19:01 | 43.83648 | 87.64050 | 11192 ft | 313 kts | 255° |
| 2026-04-24 19:02 | 43.83234 | 87.62104 | 11302 ft | 326 kts | 255° |
| 2026-04-24 19:02 | 43.82349 | 87.57926 | 11723 ft | 343 kts | 255° |
| 2026-04-24 19:02 | 43.81675 | 87.54765 | 12226 ft | 350 kts | 255° |
| 2026-04-24 19:02 | 43.80980 | 87.51513 | 12813 ft | 352 kts | 255° |
| 2026-04-24 19:03 | 43.80291 | 87.48289 | 13383 ft | 355 kts | 256° |
| 2026-04-24 19:03 | 43.79847 | 87.44939 | 13892 ft | 357 kts | 268° |
| 2026-04-24 19:03 | 43.79761 | 87.41518 | 14525 ft | 356 kts | 270° |
| 2026-04-24 19:03 | 43.79671 | 87.38050 | 14959 ft | 361 kts | 269° |
| 2026-04-24 19:04 | 43.79558 | 87.34602 | 15534 ft | 362 kts | 268° |
| 2026-04-24 19:04 | 43.79449 | 87.31080 | 15996 ft | 365 kts | 269° |
| 2026-04-24 19:04 | 43.79346 | 87.27608 | 16473 ft | 367 kts | 269° |
| 2026-04-24 19:04 | 43.79238 | 87.24059 | 16947 ft | 369 kts | 269° |
| 2026-04-24 19:05 | 43.79130 | 87.20525 | 17426 ft | 371 kts | 269° |
| 2026-04-24 19:05 | 43.79021 | 87.16958 | 17866 ft | 373 kts | 269° |
| 2026-04-24 19:05 | 43.78909 | 87.13339 | 18302 ft | 375 kts | 269° |
| 2026-04-24 19:05 | 43.78797 | 87.09769 | 18708 ft | 377 kts | 269° |
| 2026-04-24 19:06 | 43.78669 | 87.06100 | 19099 ft | 380 kts | 267° |
| 2026-04-24 19:06 | 43.78347 | 87.02509 | 19455 ft | 383 kts | 260° |
| 2026-04-24 19:06 | 43.77746 | 86.98903 | 19845 ft | 386 kts | 257° |
| 2026-04-24 19:06 | 43.77105 | 86.95305 | 20209 ft | 388 kts | 258° |
| 2026-04-24 19:07 | 43.76481 | 86.91661 | 20552 ft | 390 kts | 258° |
| 2026-04-24 19:07 | 43.75847 | 86.88010 | 20887 ft | 392 kts | 257° |
| 2026-04-24 19:07 | 43.75413 | 86.85554 | 21118 ft | 393 kts | 257° |
| 2026-04-24 19:07 | 43.74541 | 86.80656 | 21562 ft | 396 kts | 257° |
| 2026-04-24 19:08 | 43.73880 | 86.76968 | 21884 ft | 397 kts | 257° |
| 2026-04-24 19:08 | 43.73210 | 86.73241 | 22205 ft | 399 kts | 257° |
| 2026-04-24 19:08 | 43.72540 | 86.69534 | 22495 ft | 401 kts | 257° |
| 2026-04-24 19:08 | 43.71860 | 86.65784 | 22811 ft | 402 kts | 257° |
| 2026-04-24 19:09 | 43.71180 | 86.62045 | 23098 ft | 404 kts | 257° |
| 2026-04-24 19:09 | 43.70498 | 86.58302 | 23374 ft | 405 kts | 257° |
| 2026-04-24 19:09 | 43.69810 | 86.54535 | 23661 ft | 406 kts | 257° |
| 2026-04-24 19:09 | 43.69117 | 86.50752 | 23904 ft | 408 kts | 257° |
| 2026-04-24 19:10 | 43.68411 | 86.46909 | 24169 ft | 410 kts | 257° |
| 2026-04-24 19:10 | 43.67714 | 86.43120 | 24440 ft | 411 kts | 257° |
| 2026-04-24 19:10 | 43.67008 | 86.39291 | 24661 ft | 413 kts | 257° |
| 2026-04-24 19:10 | 43.66295 | 86.35432 | 24910 ft | 414 kts | 257° |
| 2026-04-24 19:11 | 43.65586 | 86.31606 | 25137 ft | 415 kts | 257° |
| 2026-04-24 19:11 | 43.64867 | 86.27734 | 25368 ft | 417 kts | 257° |
| 2026-04-24 19:11 | 43.64149 | 86.23869 | 25597 ft | 418 kts | 257° |
| 2026-04-24 19:11 | 43.63422 | 86.19968 | 25816 ft | 419 kts | 257° |
| 2026-04-24 19:12 | 43.62695 | 86.16074 | 26031 ft | 420 kts | 257° |
| 2026-04-24 19:12 | 43.62078 | 86.12121 | 26221 ft | 421 kts | 262° |
| 2026-04-24 19:12 | 43.61747 | 86.08160 | 26449 ft | 420 kts | 268° |
| 2026-04-24 19:12 | 43.61789 | 86.04134 | 26612 ft | 421 kts | 276° |
| 2026-04-24 19:13 | 43.62033 | 86.01453 | 26735 ft | 422 kts | 279° |
| 2026-04-24 19:13 | 43.62631 | 85.96124 | 27027 ft | 422 kts | 279° |
| 2026-04-24 19:13 | 43.63045 | 85.92091 | 27192 ft | 424 kts | 278° |
| 2026-04-24 19:13 | 43.63447 | 85.88094 | 27318 ft | 426 kts | 278° |
| 2026-04-24 19:14 | 43.63867 | 85.84048 | 27535 ft | 426 kts | 278° |
| 2026-04-24 19:14 | 43.64239 | 85.80001 | 27712 ft | 427 kts | 277° |
| 2026-04-24 19:14 | 43.64541 | 85.75886 | 27879 ft | 428 kts | 276° |
| 2026-04-24 19:14 | 43.64836 | 85.71819 | 28035 ft | 429 kts | 277° |
| 2026-04-24 19:15 | 43.65147 | 85.67727 | 28160 ft | 430 kts | 277° |
| 2026-04-24 19:15 | 43.65466 | 85.63623 | 28327 ft | 431 kts | 277° |
| 2026-04-24 19:15 | 43.65792 | 85.59522 | 28505 ft | 431 kts | 277° |
| 2026-04-24 19:16 | 43.66758 | 85.47196 | 28903 ft | 434 kts | 277° |
| 2026-04-24 19:16 | 43.67063 | 85.43044 | 29020 ft | 435 kts | 277° |
| 2026-04-24 19:16 | 43.67371 | 85.38889 | 29154 ft | 435 kts | 277° |
| 2026-04-24 19:17 | 43.67681 | 85.34736 | 29273 ft | 436 kts | 276° |
| 2026-04-24 19:17 | 43.67992 | 85.30600 | 29385 ft | 437 kts | 276° |
| 2026-04-24 19:17 | 43.68307 | 85.26385 | 29535 ft | 437 kts | 276° |
| 2026-04-24 19:17 | 43.68613 | 85.22253 | 29606 ft | 439 kts | 276° |
| 2026-04-24 19:18 | 43.68857 | 85.18020 | 29762 ft | 439 kts | 273° |
| 2026-04-24 19:18 | 43.68787 | 85.13866 | 29966 ft | 438 kts | 265° |
| 2026-04-24 19:18 | 43.68132 | 85.09721 | 30105 ft | 441 kts | 253° |
| 2026-04-24 19:18 | 43.66961 | 85.05846 | 30324 ft | 441 kts | 247° |
| 2026-04-24 19:19 | 43.65471 | 85.02125 | 30574 ft | 441 kts | 241° |
| 2026-04-24 19:19 | 43.63808 | 84.98584 | 30649 ft | 443 kts | 240° |
| 2026-04-24 19:19 | 43.62137 | 84.95031 | 30829 ft | 441 kts | 241° |
| 2026-04-24 19:19 | 43.60495 | 84.91465 | 31032 ft | 439 kts | 241° |
| 2026-04-24 19:20 | 43.57224 | 84.84399 | 31239 ft | 440 kts | 241° |
| 2026-04-24 19:20 | 43.55571 | 84.80863 | 31359 ft | 441 kts | 241° |
| 2026-04-24 19:20 | 43.53898 | 84.77296 | 31452 ft | 441 kts | 241° |
| 2026-04-24 19:21 | 43.50576 | 84.70222 | 31659 ft | 442 kts | 241° |
| 2026-04-24 19:21 | 43.48911 | 84.66676 | 31769 ft | 442 kts | 241° |
| 2026-04-24 19:21 | 43.47252 | 84.63136 | 31864 ft | 442 kts | 241° |
| 2026-04-24 19:22 | 43.46140 | 84.60771 | 31967 ft | 442 kts | 241° |
| 2026-04-24 19:22 | 43.43916 | 84.56087 | 32235 ft | 439 kts | 241° |
| 2026-04-24 19:22 | 43.42238 | 84.52574 | 32338 ft | 439 kts | 241° |
| 2026-04-24 19:22 | 43.40574 | 84.49073 | 32426 ft | 439 kts | 241° |
| 2026-04-24 19:23 | 43.37236 | 84.42036 | 32631 ft | 440 kts | 241° |
| 2026-04-24 19:23 | 43.33897 | 84.35035 | 32819 ft | 440 kts | 241° |
| 2026-04-24 19:24 | 43.30553 | 84.28033 | 32999 ft | 440 kts | 240° |
| 2026-04-24 19:24 | 43.28859 | 84.24500 | 33113 ft | 440 kts | 240° |
| 2026-04-24 19:24 | 43.27188 | 84.21027 | 33220 ft | 440 kts | 240° |
| 2026-04-24 19:25 | 43.23825 | 84.14010 | 33381 ft | 441 kts | 241° |
| 2026-04-24 19:25 | 43.22148 | 84.10504 | 33516 ft | 440 kts | 241° |
| 2026-04-24 19:25 | 43.20467 | 84.07012 | 33610 ft | 440 kts | 241° |
| 2026-04-24 19:26 | 43.17087 | 84.00057 | 33845 ft | 439 kts | 240° |
| 2026-04-24 19:26 | 43.13725 | 83.93111 | 34052 ft | 438 kts | 241° |
| 2026-04-24 19:27 | 43.10399 | 83.86201 | 34202 ft | 439 kts | 241° |
| 2026-04-24 19:27 | 43.07033 | 83.79247 | 34398 ft | 438 kts | 241° |
| 2026-04-24 19:28 | 43.03667 | 83.72313 | 34568 ft | 438 kts | 241° |
| 2026-04-24 19:28 | 43.00299 | 83.65413 | 34726 ft | 438 kts | 241° |
| 2026-04-24 19:29 | 42.96926 | 83.58514 | 34890 ft | 438 kts | 240° |
| 2026-04-24 19:29 | 42.95236 | 83.55062 | 34950 ft | 438 kts | 240° |
| 2026-04-24 19:30 | 42.91857 | 83.48157 | 35102 ft | 438 kts | 240° |
| 2026-04-24 19:30 | 42.88470 | 83.41334 | 35292 ft | 437 kts | 240° |
| 2026-04-24 19:31 | 42.85082 | 83.34485 | 35444 ft | 435 kts | 240° |
| 2026-04-24 19:31 | 42.81731 | 83.27648 | 35575 ft | 435 kts | 240° |
| 2026-04-24 19:32 | 42.78334 | 83.20847 | 35720 ft | 435 kts | 239° |
| 2026-04-24 19:32 | 42.74945 | 83.14050 | 35868 ft | 434 kts | 240° |
| 2026-04-24 19:33 | 42.71578 | 83.07253 | 36007 ft | 434 kts | 239° |
| 2026-04-24 19:33 | 42.68172 | 83.00498 | 36153 ft | 433 kts | 240° |
| 2026-04-24 19:34 | 42.64799 | 82.93732 | 36155 ft | 435 kts | 240° |
| 2026-04-24 19:34 | 42.61422 | 82.86945 | 36153 ft | 436 kts | 240° |
| 2026-04-24 19:35 | 42.58020 | 82.80157 | 36155 ft | 437 kts | 240° |
| 2026-04-24 19:35 | 42.54582 | 82.73342 | 36154 ft | 436 kts | 240° |
| 2026-04-24 19:36 | 42.51158 | 82.66576 | 36154 ft | 436 kts | 240° |
| 2026-04-24 19:36 | 42.47753 | 82.59827 | 36155 ft | 437 kts | 240° |
| 2026-04-24 19:37 | 42.44338 | 82.53033 | 36151 ft | 436 kts | 240° |
| 2026-04-24 19:37 | 42.40916 | 82.46324 | 36146 ft | 436 kts | 240° |
| 2026-04-24 19:38 | 42.37455 | 82.39591 | 36138 ft | 437 kts | 240° |
| 2026-04-24 19:38 | 42.33999 | 82.32844 | 36129 ft | 438 kts | 240° |
| 2026-04-24 19:39 | 42.30582 | 82.26080 | 36126 ft | 436 kts | 240° |
| 2026-04-24 19:39 | 42.27158 | 82.19334 | 36130 ft | 437 kts | 240° |
| 2026-04-24 19:40 | 42.23696 | 82.12639 | 36128 ft | 437 kts | 239° |
| 2026-04-24 19:40 | 42.20193 | 82.05945 | 36127 ft | 437 kts | 239° |
| 2026-04-24 19:41 | 42.16733 | 81.99286 | 36128 ft | 437 kts | 239° |
| 2026-04-24 19:41 | 42.13248 | 81.92549 | 36129 ft | 437 kts | 240° |
| 2026-04-24 19:42 | 42.09803 | 81.85837 | 36128 ft | 437 kts | 240° |
| 2026-04-24 19:42 | 42.06367 | 81.79154 | 36127 ft | 436 kts | 240° |
| 2026-04-24 19:43 | 42.02880 | 81.72469 | 36129 ft | 437 kts | 239° |
| 2026-04-24 19:43 | 41.99382 | 81.65828 | 36127 ft | 437 kts | 239° |
| 2026-04-24 19:44 | 41.95897 | 81.59165 | 36127 ft | 437 kts | 240° |
| 2026-04-24 19:44 | 41.92424 | 81.52502 | 36128 ft | 437 kts | 240° |
| 2026-04-24 19:45 | 41.88895 | 81.45825 | 36127 ft | 437 kts | 239° |
| 2026-04-24 19:45 | 41.85403 | 81.39239 | 36128 ft | 436 kts | 240° |
| 2026-04-24 19:46 | 41.81923 | 81.32616 | 36128 ft | 438 kts | 239° |
| 2026-04-24 19:46 | 41.78416 | 81.25944 | 36127 ft | 438 kts | 239° |
| 2026-04-24 19:47 | 41.74905 | 81.19353 | 36127 ft | 436 kts | 239° |
| 2026-04-24 19:47 | 41.71373 | 81.12763 | 36128 ft | 437 kts | 239° |
| 2026-04-24 19:48 | 41.67853 | 81.06126 | 36128 ft | 436 kts | 239° |
| 2026-04-24 19:48 | 41.64333 | 80.95385 | 36127 ft | 417 kts | 263° |
| 2026-04-24 19:49 | 41.63772 | 80.79936 | 36128 ft | 418 kts | 269° |
| 2026-04-24 19:50 | 41.63273 | 80.64502 | 36129 ft | 418 kts | 269° |
| 2026-04-24 19:51 | 41.62998 | 80.52830 | 36129 ft | 419 kts | 270° |
| 2026-04-24 19:52 | 41.62644 | 80.41222 | 36130 ft | 418 kts | 269° |
| 2026-04-24 19:52 | 41.62339 | 80.33434 | 36128 ft | 419 kts | 268° |
| 2026-04-24 19:53 | 41.62053 | 80.25743 | 36128 ft | 417 kts | 268° |
| 2026-04-24 19:54 | 41.61705 | 80.14090 | 36130 ft | 418 kts | 270° |
| 2026-04-24 19:54 | 41.61496 | 80.06383 | 36162 ft | 418 kts | 269° |
| 2026-04-24 19:55 | 41.61284 | 80.01208 | 36185 ft | 419 kts | 268° |
| 2026-04-24 19:55 | 41.60887 | 79.90913 | 36229 ft | 418 kts | 269° |
| 2026-04-24 19:56 | 41.60618 | 79.83173 | 36231 ft | 418 kts | 269° |
| 2026-04-24 19:56 | 41.60332 | 79.75417 | 36235 ft | 418 kts | 269° |
| 2026-04-24 19:57 | 41.60048 | 79.67677 | 36236 ft | 418 kts | 268° |
| 2026-04-24 19:57 | 41.59734 | 79.59931 | 36237 ft | 419 kts | 269° |
| 2026-04-24 19:58 | 41.59503 | 79.52224 | 36235 ft | 417 kts | 270° |
| 2026-04-24 19:58 | 41.59243 | 79.44521 | 36237 ft | 417 kts | 268° |
| 2026-04-24 19:59 | 41.58875 | 79.36778 | 36237 ft | 419 kts | 268° |
| 2026-04-24 19:59 | 41.58534 | 79.29022 | 36235 ft | 419 kts | 268° |
| 2026-04-24 20:00 | 41.58279 | 79.21242 | 36235 ft | 416 kts | 269° |
| 2026-04-24 20:00 | 41.58019 | 79.13543 | 36236 ft | 417 kts | 268° |
| 2026-04-24 20:01 | 41.57658 | 79.05823 | 36236 ft | 417 kts | 267° |
| 2026-04-24 20:01 | 41.57290 | 78.98173 | 36235 ft | 414 kts | 268° |
| 2026-04-24 20:02 | 41.56980 | 78.91769 | 36238 ft | 415 kts | 267° |
| 2026-04-24 20:02 | 41.56616 | 78.82835 | 36236 ft | 415 kts | 268° |
| 2026-04-24 20:03 | 41.56352 | 78.75154 | 36236 ft | 415 kts | 268° |
| 2026-04-24 20:03 | 41.56109 | 78.67453 | 36236 ft | 414 kts | 269° |
| 2026-04-24 20:04 | 41.55839 | 78.59792 | 36235 ft | 415 kts | 268° |
| 2026-04-24 20:04 | 41.55582 | 78.52123 | 36235 ft | 415 kts | 268° |
| 2026-04-24 20:05 | 41.55331 | 78.44439 | 36236 ft | 414 kts | 269° |
| 2026-04-24 20:05 | 41.55111 | 78.36765 | 36237 ft | 415 kts | 269° |
| 2026-04-24 20:06 | 41.54838 | 78.29089 | 36237 ft | 416 kts | 267° |
| 2026-04-24 20:06 | 41.54570 | 78.21402 | 36235 ft | 416 kts | 268° |
| 2026-04-24 20:07 | 41.54359 | 78.15018 | 36236 ft | 414 kts | 268° |
| 2026-04-24 20:07 | 41.53978 | 78.06096 | 36236 ft | 414 kts | 268° |
| 2026-04-24 20:08 | 41.53670 | 77.98463 | 36237 ft | 415 kts | 268° |
| 2026-04-24 20:08 | 41.53350 | 77.90784 | 36235 ft | 415 kts | 268° |
| 2026-04-24 20:09 | 41.53044 | 77.83070 | 36236 ft | 415 kts | 268° |
| 2026-04-24 20:09 | 41.52798 | 77.75420 | 36236 ft | 415 kts | 268° |
| 2026-04-24 20:10 | 41.52528 | 77.67729 | 36234 ft | 415 kts | 268° |
| 2026-04-24 20:10 | 41.52228 | 77.60083 | 36235 ft | 414 kts | 267° |
| 2026-04-24 20:11 | 41.51855 | 77.52406 | 36236 ft | 416 kts | 268° |
| 2026-04-24 20:11 | 41.51485 | 77.44754 | 36236 ft | 415 kts | 267° |
| 2026-04-24 20:12 | 41.51130 | 77.37078 | 36236 ft | 414 kts | 268° |
| 2026-04-24 20:12 | 41.50856 | 77.29437 | 36234 ft | 415 kts | 268° |
| 2026-04-24 20:13 | 41.50539 | 77.21762 | 36236 ft | 415 kts | 267° |
| 2026-04-24 20:13 | 41.50203 | 77.14138 | 36236 ft | 413 kts | 267° |
| 2026-04-24 20:14 | 41.49860 | 77.06477 | 36237 ft | 414 kts | 267° |
| 2026-04-24 20:14 | 41.49515 | 76.98830 | 36237 ft | 415 kts | 267° |
| 2026-04-24 20:15 | 41.49140 | 76.91159 | 36236 ft | 413 kts | 267° |
| 2026-04-24 20:15 | 41.48777 | 76.83576 | 36237 ft | 412 kts | 266° |
| 2026-04-24 20:16 | 41.48421 | 76.75971 | 36235 ft | 413 kts | 266° |
| 2026-04-24 20:16 | 41.48029 | 76.68372 | 36236 ft | 412 kts | 266° |
| 2026-04-24 20:17 | 41.47604 | 76.60778 | 36237 ft | 413 kts | 266° |
| 2026-04-24 20:17 | 41.46977 | 76.49348 | 36236 ft | 412 kts | 266° |
| 2026-04-24 20:18 | 41.46574 | 76.41740 | 36237 ft | 412 kts | 266° |
| 2026-04-24 20:18 | 41.46178 | 76.34124 | 36237 ft | 412 kts | 266° |
| 2026-04-24 20:19 | 41.45760 | 76.26536 | 36237 ft | 412 kts | 266° |
| 2026-04-24 20:19 | 41.45347 | 76.18922 | 36236 ft | 412 kts | 266° |
| 2026-04-24 20:20 | 41.44926 | 76.11328 | 36236 ft | 413 kts | 266° |
| 2026-04-24 20:20 | 41.44516 | 76.03687 | 36235 ft | 412 kts | 266° |
| 2026-04-24 20:21 | 41.44079 | 75.96092 | 36237 ft | 412 kts | 266° |
| 2026-04-24 20:21 | 41.43648 | 75.88534 | 36236 ft | 411 kts | 266° |
| 2026-04-24 20:22 | 41.43278 | 75.80912 | 36236 ft | 413 kts | 266° |
| 2026-04-24 20:22 | 41.42872 | 75.73318 | 36236 ft | 411 kts | 266° |
| 2026-04-24 20:23 | 41.42408 | 75.65752 | 36236 ft | 412 kts | 265° |
| 2026-04-24 20:23 | 41.41926 | 75.58171 | 36235 ft | 413 kts | 265° |
| 2026-04-24 20:24 | 41.41452 | 75.50542 | 36224 ft | 412 kts | 265° |
| 2026-04-24 20:24 | 41.40982 | 75.42982 | 36214 ft | 412 kts | 266° |
| 2026-04-24 20:25 | 41.40518 | 75.35403 | 36197 ft | 413 kts | 266° |
| 2026-04-24 20:25 | 41.40048 | 75.27770 | 36155 ft | 412 kts | 265° |
| 2026-04-24 20:26 | 41.39586 | 75.20188 | 36118 ft | 412 kts | 265° |
| 2026-04-24 20:26 | 41.39109 | 75.12603 | 36082 ft | 412 kts | 265° |
| 2026-04-24 20:27 | 41.38647 | 75.05026 | 36074 ft | 411 kts | 266° |
| 2026-04-24 20:27 | 41.38209 | 74.97430 | 36075 ft | 412 kts | 265° |
| 2026-04-24 20:28 | 41.37748 | 74.89877 | 36074 ft | 412 kts | 265° |
| 2026-04-24 20:28 | 41.37243 | 74.82262 | 36075 ft | 413 kts | 265° |
| 2026-04-24 20:29 | 41.36737 | 74.74664 | 36074 ft | 413 kts | 265° |
| 2026-04-24 20:29 | 41.36250 | 74.67084 | 36074 ft | 412 kts | 265° |
| 2026-04-24 20:30 | 41.35736 | 74.59488 | 36074 ft | 413 kts | 265° |
| 2026-04-24 20:30 | 41.35183 | 74.51932 | 36073 ft | 410 kts | 264° |
| 2026-04-24 20:31 | 41.34616 | 74.44415 | 36074 ft | 411 kts | 265° |
| 2026-04-24 20:31 | 41.34077 | 74.36832 | 36074 ft | 413 kts | 265° |
| 2026-04-24 20:32 | 41.33531 | 74.29203 | 36074 ft | 413 kts | 264° |
| 2026-04-24 20:32 | 41.32988 | 74.21644 | 36073 ft | 411 kts | 264° |
| 2026-04-24 20:33 | 41.32449 | 74.14095 | 36074 ft | 412 kts | 264° |
| 2026-04-24 20:33 | 41.31887 | 74.06523 | 36073 ft | 412 kts | 264° |
| 2026-04-24 20:34 | 41.31396 | 73.98940 | 36075 ft | 411 kts | 266° |
| 2026-04-24 20:34 | 41.31103 | 73.91383 | 36073 ft | 412 kts | 267° |
| 2026-04-24 20:35 | 41.30825 | 73.83763 | 36073 ft | 412 kts | 266° |
| 2026-04-24 20:35 | 41.30516 | 73.76202 | 36074 ft | 413 kts | 267° |
| 2026-04-24 20:36 | 41.30201 | 73.68609 | 36074 ft | 411 kts | 267° |
| 2026-04-24 20:36 | 41.29879 | 73.61013 | 36074 ft | 413 kts | 266° |
| 2026-04-24 20:37 | 41.29517 | 73.53457 | 36073 ft | 411 kts | 266° |
| 2026-04-24 20:37 | 41.29114 | 73.45863 | 36075 ft | 412 kts | 266° |
| 2026-04-24 20:38 | 41.28742 | 73.38290 | 36074 ft | 412 kts | 266° |
| 2026-04-24 20:38 | 41.28380 | 73.30702 | 36074 ft | 412 kts | 266° |
| 2026-04-24 20:39 | 41.28005 | 73.23112 | 36073 ft | 412 kts | 266° |
| 2026-04-24 20:39 | 41.27647 | 73.15524 | 36075 ft | 412 kts | 266° |
| 2026-04-24 20:40 | 41.27264 | 73.07913 | 36073 ft | 412 kts | 266° |
| 2026-04-24 20:40 | 41.26924 | 73.00362 | 36074 ft | 410 kts | 266° |
| 2026-04-24 20:41 | 41.26601 | 72.92807 | 36075 ft | 412 kts | 266° |
| 2026-04-24 20:41 | 41.26214 | 72.85212 | 36074 ft | 413 kts | 265° |
| 2026-04-24 20:42 | 41.25774 | 72.77637 | 36073 ft | 411 kts | 266° |
| 2026-04-24 20:42 | 41.25366 | 72.70052 | 36073 ft | 413 kts | 266° |
| 2026-04-24 20:43 | 41.24956 | 72.62516 | 36073 ft | 411 kts | 266° |
| 2026-04-24 20:43 | 41.24544 | 72.54916 | 36074 ft | 412 kts | 266° |
| 2026-04-24 20:44 | 41.24163 | 72.47336 | 36074 ft | 411 kts | 266° |
| 2026-04-24 20:44 | 41.23785 | 72.39780 | 36074 ft | 410 kts | 266° |
| 2026-04-24 20:45 | 41.23385 | 72.32231 | 36074 ft | 412 kts | 266° |
| 2026-04-24 20:45 | 41.22975 | 72.24782 | 36074 ft | 412 kts | 265° |
| 2026-04-24 20:46 | 41.22502 | 72.17264 | 36074 ft | 411 kts | 265° |
| 2026-04-24 20:46 | 41.22085 | 72.09692 | 36074 ft | 413 kts | 266° |
| 2026-04-24 20:47 | 41.21677 | 72.02098 | 36073 ft | 413 kts | 265° |
| 2026-04-24 20:47 | 41.21236 | 71.94492 | 36074 ft | 411 kts | 265° |
| 2026-04-24 20:48 | 41.20800 | 71.86951 | 36074 ft | 411 kts | 265° |
| 2026-04-24 20:48 | 41.20368 | 71.79392 | 36074 ft | 412 kts | 265° |
| 2026-04-24 20:49 | 41.19896 | 71.71851 | 36074 ft | 411 kts | 265° |
| 2026-04-24 20:49 | 41.19370 | 71.64316 | 36074 ft | 411 kts | 265° |
| 2026-04-24 20:50 | 41.18901 | 71.56753 | 36075 ft | 412 kts | 266° |
| 2026-04-24 20:50 | 41.18447 | 71.49201 | 36074 ft | 411 kts | 265° |
| 2026-04-24 20:51 | 41.17985 | 71.41643 | 36074 ft | 413 kts | 265° |
| 2026-04-24 20:51 | 41.17513 | 71.34063 | 36074 ft | 412 kts | 265° |
| 2026-04-24 20:52 | 41.16987 | 71.26477 | 36073 ft | 411 kts | 264° |
| 2026-04-24 20:52 | 41.16454 | 71.18941 | 36061 ft | 412 kts | 265° |
| 2026-04-24 20:53 | 41.15946 | 71.11448 | 36048 ft | 410 kts | 265° |
| 2026-04-24 20:53 | 41.15435 | 71.03890 | 36034 ft | 412 kts | 265° |
| 2026-04-24 20:54 | 41.14963 | 70.96325 | 36027 ft | 410 kts | 266° |
| 2026-04-24 20:54 | 41.14481 | 70.88903 | 36023 ft | 404 kts | 266° |
| 2026-04-24 20:55 | 41.13974 | 70.81530 | 36021 ft | 401 kts | 267° |
| 2026-04-24 20:55 | 41.13450 | 70.74190 | 36020 ft | 401 kts | 267° |
| 2026-04-24 20:56 | 41.12927 | 70.66785 | 36020 ft | 402 kts | 267° |
| 2026-04-24 20:56 | 41.12404 | 70.59445 | 36020 ft | 402 kts | 267° |
| 2026-04-24 20:57 | 41.11876 | 70.52082 | 36020 ft | 402 kts | 267° |
| 2026-04-24 20:57 | 41.11343 | 70.44701 | 36020 ft | 403 kts | 267° |
| 2026-04-24 20:58 | 41.10805 | 70.37325 | 36020 ft | 403 kts | 267° |
| 2026-04-24 20:58 | 41.10262 | 70.29981 | 36020 ft | 404 kts | 266° |
| 2026-04-24 20:59 | 41.09123 | 70.22663 | 36018 ft | 408 kts | 254° |
| 2026-04-24 20:59 | 41.06822 | 70.15765 | 36020 ft | 412 kts | 249° |
| 2026-04-24 21:00 | 41.04469 | 70.08846 | 36020 ft | 413 kts | 249° |
| 2026-04-24 21:00 | 41.02091 | 70.01920 | 36019 ft | 414 kts | 249° |
| 2026-04-24 21:01 | 40.99706 | 69.95037 | 36021 ft | 415 kts | 249° |
| 2026-04-24 21:01 | 40.97299 | 69.88086 | 36020 ft | 415 kts | 249° |
| 2026-04-24 21:02 | 40.94870 | 69.81165 | 36020 ft | 417 kts | 248° |
| 2026-04-24 21:02 | 40.92440 | 69.74239 | 36019 ft | 417 kts | 248° |
| 2026-04-24 21:03 | 40.91225 | 69.70764 | 35835 ft | 419 kts | 248° |
| 2026-04-24 21:03 | 40.90014 | 69.67316 | 35833 ft | 416 kts | 248° |
| 2026-04-24 21:03 | 40.87564 | 69.60392 | 35831 ft | 415 kts | 248° |
| 2026-04-24 21:04 | 40.85123 | 69.53507 | 35831 ft | 417 kts | 248° |
| 2026-04-24 21:04 | 40.82666 | 69.46568 | 35830 ft | 417 kts | 248° |
| 2026-04-24 21:05 | 40.80226 | 69.39680 | 35831 ft | 416 kts | 248° |
| 2026-04-24 21:05 | 40.77764 | 69.32768 | 35830 ft | 417 kts | 248° |
| 2026-04-24 21:06 | 40.75281 | 69.25869 | 35831 ft | 417 kts | 247° |
| 2026-04-24 21:06 | 40.72796 | 69.18982 | 35830 ft | 415 kts | 248° |
| 2026-04-24 21:07 | 40.70335 | 69.12138 | 35831 ft | 416 kts | 248° |
| 2026-04-24 21:07 | 40.67867 | 69.05273 | 35830 ft | 415 kts | 247° |
| 2026-04-24 21:08 | 40.65414 | 68.98457 | 35830 ft | 411 kts | 246° |
| 2026-04-24 21:08 | 40.62982 | 68.91727 | 35831 ft | 408 kts | 246° |
| 2026-04-24 21:09 | 40.60551 | 68.85021 | 35831 ft | 407 kts | 245° |
| 2026-04-24 21:09 | 40.58119 | 68.78329 | 35831 ft | 408 kts | 245° |
| 2026-04-24 21:10 | 40.56062 | 68.71384 | 35831 ft | 407 kts | 252° |
| 2026-04-24 21:10 | 40.54253 | 68.64384 | 35831 ft | 407 kts | 251° |
| 2026-04-24 21:11 | 40.52379 | 68.57375 | 35831 ft | 407 kts | 251° |
| 2026-04-24 21:11 | 40.50183 | 68.50570 | 35832 ft | 408 kts | 245° |
| 2026-04-24 21:12 | 40.48110 | 68.44990 | 35831 ft | 408 kts | 246° |
| 2026-04-24 21:12 | 40.45284 | 68.37135 | 35831 ft | 408 kts | 246° |
| 2026-04-24 21:13 | 40.42855 | 68.30437 | 35831 ft | 408 kts | 245° |
| 2026-04-24 21:13 | 40.40428 | 68.23747 | 35831 ft | 408 kts | 245° |
| 2026-04-24 21:14 | 40.38000 | 68.17069 | 35831 ft | 408 kts | 245° |
| 2026-04-24 21:14 | 40.35551 | 68.10346 | 35831 ft | 408 kts | 245° |
| 2026-04-24 21:15 | 40.33124 | 68.03700 | 35831 ft | 408 kts | 245° |
| 2026-04-24 21:15 | 40.30683 | 67.96969 | 35831 ft | 407 kts | 246° |
| 2026-04-24 21:16 | 40.28274 | 67.90302 | 35831 ft | 407 kts | 246° |
| 2026-04-24 21:16 | 40.25855 | 67.83638 | 35831 ft | 407 kts | 246° |
| 2026-04-24 21:17 | 40.23431 | 67.76974 | 35831 ft | 407 kts | 246° |
| 2026-04-24 21:17 | 40.21394 | 67.71384 | 35831 ft | 407 kts | 246° |
| 2026-04-24 21:18 | 40.18578 | 67.63660 | 36071 ft | 402 kts | 246° |
| 2026-04-24 21:18 | 40.16235 | 67.56986 | 36073 ft | 407 kts | 246° |
| 2026-04-24 21:19 | 40.13879 | 67.50298 | 36074 ft | 407 kts | 246° |
| 2026-04-24 21:19 | 40.11512 | 67.43605 | 36074 ft | 406 kts | 246° |
| 2026-04-24 21:20 | 40.07957 | 67.33582 | 36074 ft | 406 kts | 246° |
| 2026-04-24 21:21 | 40.05582 | 67.26907 | 36074 ft | 407 kts | 246° |
| 2026-04-24 21:21 | 40.03200 | 67.20230 | 36074 ft | 406 kts | 246° |
| 2026-04-24 21:22 | 40.00821 | 67.13576 | 36074 ft | 406 kts | 246° |
| 2026-04-24 21:22 | 39.98436 | 67.06918 | 36074 ft | 407 kts | 246° |
| 2026-04-24 21:23 | 39.96031 | 67.00223 | 36074 ft | 407 kts | 246° |
| 2026-04-24 21:23 | 39.93635 | 66.93568 | 36074 ft | 407 kts | 246° |
| 2026-04-24 21:24 | 39.91241 | 66.86932 | 36074 ft | 407 kts | 246° |
| 2026-04-24 21:24 | 39.88833 | 66.80273 | 36074 ft | 407 kts | 246° |
| 2026-04-24 21:25 | 39.86422 | 66.73624 | 36074 ft | 407 kts | 246° |
| 2026-04-24 21:25 | 39.83992 | 66.66933 | 36074 ft | 407 kts | 246° |
| 2026-04-24 21:26 | 39.81573 | 66.60290 | 36074 ft | 407 kts | 246° |
| 2026-04-24 21:26 | 39.79154 | 66.53664 | 36074 ft | 407 kts | 246° |
| 2026-04-24 21:27 | 39.76718 | 66.47003 | 36073 ft | 408 kts | 246° |
| 2026-04-24 21:27 | 39.74309 | 66.40400 | 36029 ft | 408 kts | 247° |
| 2026-04-24 21:28 | 39.72349 | 66.33638 | 35984 ft | 407 kts | 251° |
| 2026-04-24 21:28 | 39.70416 | 66.26748 | 35937 ft | 407 kts | 250° |
| 2026-04-24 21:29 | 39.68454 | 66.19882 | 35912 ft | 406 kts | 250° |
| 2026-04-24 21:29 | 39.66494 | 66.13017 | 35912 ft | 406 kts | 250° |
| 2026-04-24 21:30 | 39.64530 | 66.06175 | 35911 ft | 407 kts | 250° |
| 2026-04-24 21:30 | 39.62562 | 65.99334 | 35912 ft | 406 kts | 250° |
| 2026-04-24 21:31 | 39.60597 | 65.92491 | 35912 ft | 407 kts | 250° |
| 2026-04-24 21:31 | 39.58620 | 65.85599 | 35912 ft | 407 kts | 250° |
| 2026-04-24 21:32 | 39.56647 | 65.78748 | 35912 ft | 407 kts | 250° |
| 2026-04-24 21:32 | 39.54679 | 65.71931 | 35911 ft | 406 kts | 250° |
| 2026-04-24 21:33 | 39.52703 | 65.65105 | 35912 ft | 406 kts | 250° |
| 2026-04-24 21:33 | 39.50714 | 65.58252 | 35912 ft | 406 kts | 250° |
| 2026-04-24 21:34 | 39.48730 | 65.51436 | 35912 ft | 407 kts | 250° |
| 2026-04-24 21:34 | 39.46730 | 65.44582 | 35912 ft | 407 kts | 250° |
| 2026-04-24 21:35 | 39.44730 | 65.37745 | 35911 ft | 407 kts | 250° |
| 2026-04-24 21:35 | 39.42733 | 65.30933 | 35912 ft | 407 kts | 250° |
| 2026-04-24 21:36 | 39.40728 | 65.24115 | 35912 ft | 407 kts | 250° |
| 2026-04-24 21:36 | 39.38721 | 65.17306 | 35912 ft | 407 kts | 250° |
| 2026-04-24 21:37 | 39.36706 | 65.10489 | 35912 ft | 406 kts | 250° |
| 2026-04-24 21:37 | 39.34689 | 65.03679 | 35912 ft | 407 kts | 250° |
| 2026-04-24 21:38 | 39.32679 | 64.96918 | 35911 ft | 405 kts | 250° |
| 2026-04-24 21:38 | 39.30644 | 64.90148 | 35913 ft | 404 kts | 250° |
| 2026-04-24 21:39 | 39.28628 | 64.83405 | 35910 ft | 403 kts | 251° |
| 2026-04-24 21:39 | 39.26648 | 64.76697 | 35911 ft | 402 kts | 251° |
| 2026-04-24 21:40 | 39.24647 | 64.69954 | 35911 ft | 403 kts | 251° |
| 2026-04-24 21:40 | 39.22641 | 64.63228 | 35911 ft | 402 kts | 251° |
| 2026-04-24 21:41 | 39.20610 | 64.56511 | 35913 ft | 402 kts | 251° |
| 2026-04-24 21:41 | 39.18554 | 64.49799 | 35914 ft | 405 kts | 251° |
| 2026-04-24 21:42 | 39.16513 | 64.43085 | 35911 ft | 403 kts | 251° |
| 2026-04-24 21:42 | 39.14520 | 64.36398 | 35912 ft | 402 kts | 251° |
| 2026-04-24 21:43 | 39.12452 | 64.29678 | 35913 ft | 404 kts | 250° |
| 2026-04-24 21:43 | 39.10386 | 64.23013 | 35913 ft | 403 kts | 250° |
| 2026-04-24 21:44 | 39.08334 | 64.16335 | 35911 ft | 403 kts | 250° |
| 2026-04-24 21:44 | 39.06329 | 64.09611 | 35910 ft | 401 kts | 251° |
| 2026-04-24 21:45 | 39.04399 | 64.02873 | 35911 ft | 402 kts | 251° |
| 2026-04-24 21:45 | 39.02448 | 63.96140 | 35913 ft | 402 kts | 251° |
| 2026-04-24 21:46 | 39.00463 | 63.89481 | 35910 ft | 400 kts | 251° |
| 2026-04-24 21:46 | 38.98486 | 63.82850 | 35913 ft | 399 kts | 251° |
| 2026-04-24 21:47 | 38.96522 | 63.76138 | 35911 ft | 399 kts | 252° |
| 2026-04-24 21:47 | 38.94581 | 63.69524 | 35910 ft | 397 kts | 251° |
| 2026-04-24 21:48 | 38.92603 | 63.62943 | 35912 ft | 396 kts | 252° |
| 2026-04-24 21:48 | 38.91183 | 63.56166 | 35914 ft | 394 kts | 263° |
| 2026-04-24 21:49 | 38.90414 | 63.49177 | 35910 ft | 394 kts | 263° |
| 2026-04-24 21:49 | 38.89593 | 63.42247 | 35912 ft | 392 kts | 263° |
| 2026-04-24 21:50 | 38.88782 | 63.35373 | 35911 ft | 390 kts | 263° |
| 2026-04-24 21:50 | 38.88013 | 63.28439 | 35911 ft | 391 kts | 263° |
| 2026-04-24 21:51 | 38.87246 | 63.21587 | 35910 ft | 391 kts | 263° |
| 2026-04-24 21:51 | 38.86495 | 63.14688 | 35913 ft | 393 kts | 263° |
| 2026-04-24 21:52 | 38.85780 | 63.07726 | 35911 ft | 392 kts | 263° |
| 2026-04-24 21:52 | 38.85046 | 63.00841 | 35911 ft | 391 kts | 263° |
| 2026-04-24 21:53 | 38.84266 | 62.93907 | 35912 ft | 395 kts | 263° |
| 2026-04-24 21:53 | 38.83418 | 62.86963 | 35911 ft | 395 kts | 262° |
| 2026-04-24 21:54 | 38.82587 | 62.79998 | 35913 ft | 395 kts | 263° |
| 2026-04-24 21:54 | 38.81784 | 62.73065 | 35911 ft | 396 kts | 263° |
| 2026-04-24 21:55 | 38.80961 | 62.66090 | 35911 ft | 395 kts | 263° |
| 2026-04-24 21:55 | 38.80161 | 62.59174 | 35912 ft | 395 kts | 263° |
| 2026-04-24 21:56 | 38.79339 | 62.52198 | 35912 ft | 395 kts | 263° |
| 2026-04-24 21:56 | 38.78513 | 62.45219 | 35912 ft | 395 kts | 263° |
| 2026-04-24 21:57 | 38.77696 | 62.38311 | 35913 ft | 396 kts | 263° |
| 2026-04-24 21:57 | 38.76861 | 62.31341 | 35912 ft | 395 kts | 262° |
| 2026-04-24 21:58 | 38.76092 | 62.24382 | 35911 ft | 394 kts | 263° |
| 2026-04-24 21:58 | 38.75296 | 62.17495 | 35912 ft | 394 kts | 263° |
| 2026-04-24 21:59 | 38.74478 | 62.10531 | 35912 ft | 395 kts | 263° |
| 2026-04-24 21:59 | 38.73660 | 62.03608 | 35912 ft | 395 kts | 262° |
| 2026-04-24 22:00 | 38.72819 | 61.96672 | 35911 ft | 395 kts | 262° |
| 2026-04-24 22:00 | 38.71973 | 61.89722 | 35911 ft | 395 kts | 262° |
| 2026-04-24 22:01 | 38.71120 | 61.82800 | 35911 ft | 395 kts | 262° |
| 2026-04-24 22:01 | 38.70267 | 61.75884 | 35911 ft | 394 kts | 262° |
| 2026-04-24 22:02 | 38.69405 | 61.68959 | 35912 ft | 394 kts | 262° |
| 2026-04-24 22:02 | 38.68546 | 61.62045 | 35911 ft | 395 kts | 262° |
| 2026-04-24 22:03 | 38.67675 | 61.55108 | 35911 ft | 394 kts | 262° |
| 2026-04-24 22:03 | 38.66766 | 61.48202 | 35912 ft | 394 kts | 262° |
| 2026-04-24 22:04 | 38.65850 | 61.41316 | 35912 ft | 395 kts | 262° |
| 2026-04-24 22:04 | 38.64775 | 61.34443 | 35913 ft | 396 kts | 257° |
| 2026-04-24 22:05 | 38.63352 | 61.27651 | 35911 ft | 396 kts | 257° |
| 2026-04-24 22:05 | 38.62008 | 61.20828 | 35937 ft | 395 kts | 257° |
| 2026-04-24 22:06 | 38.60657 | 61.14028 | 35940 ft | 397 kts | 257° |
| 2026-04-24 22:06 | 38.59283 | 61.07181 | 35939 ft | 399 kts | 257° |
| 2026-04-24 22:07 | 38.57892 | 61.00303 | 35939 ft | 400 kts | 257° |
| 2026-04-24 22:07 | 38.56492 | 60.93403 | 35940 ft | 402 kts | 257° |
| 2026-04-24 22:08 | 38.55103 | 60.86544 | 35940 ft | 401 kts | 257° |
| 2026-04-24 22:08 | 38.53688 | 60.79636 | 35939 ft | 400 kts | 257° |
| 2026-04-24 22:09 | 38.52279 | 60.72779 | 35939 ft | 401 kts | 257° |
| 2026-04-24 22:09 | 38.50855 | 60.65866 | 35938 ft | 401 kts | 257° |
| 2026-04-24 22:10 | 38.49432 | 60.59020 | 35938 ft | 399 kts | 257° |
| 2026-04-24 22:10 | 38.48013 | 60.52163 | 35939 ft | 401 kts | 257° |
| 2026-04-24 22:11 | 38.46585 | 60.45289 | 35796 ft | 399 kts | 257° |
| 2026-04-24 22:11 | 38.45876 | 60.41902 | 35349 ft | 393 kts | 257° |
| 2026-04-24 22:11 | 38.45174 | 60.38560 | 34905 ft | 387 kts | 257° |
| 2026-04-24 22:11 | 38.44482 | 60.35286 | 34439 ft | 382 kts | 257° |
| 2026-04-24 22:12 | 38.43792 | 60.32030 | 33974 ft | 377 kts | 256° |
| 2026-04-24 22:12 | 38.43113 | 60.28836 | 33513 ft | 372 kts | 256° |
| 2026-04-24 22:12 | 38.42445 | 60.25679 | 33059 ft | 370 kts | 257° |
| 2026-04-24 22:12 | 38.41770 | 60.22496 | 32602 ft | 373 kts | 256° |
| 2026-04-24 22:13 | 38.41098 | 60.19318 | 32134 ft | 371 kts | 257° |
| 2026-04-24 22:13 | 38.40447 | 60.16188 | 31679 ft | 366 kts | 257° |
| 2026-04-24 22:13 | 38.39800 | 60.13050 | 31222 ft | 362 kts | 257° |
| 2026-04-24 22:13 | 38.39161 | 60.09996 | 30776 ft | 357 kts | 256° |
| 2026-04-24 22:14 | 38.38515 | 60.06977 | 30334 ft | 353 kts | 256° |
| 2026-04-24 22:14 | 38.37867 | 60.03937 | 29893 ft | 356 kts | 256° |
| 2026-04-24 22:14 | 38.37228 | 60.00909 | 29441 ft | 355 kts | 256° |
| 2026-04-24 22:14 | 38.36596 | 59.97905 | 28997 ft | 351 kts | 256° |
| 2026-04-24 22:15 | 38.35965 | 59.94928 | 28557 ft | 346 kts | 256° |
| 2026-04-24 22:15 | 38.35339 | 59.92001 | 28125 ft | 342 kts | 256° |
| 2026-04-24 22:15 | 38.34705 | 59.89074 | 27692 ft | 341 kts | 256° |
| 2026-04-24 22:15 | 38.34081 | 59.86158 | 27262 ft | 345 kts | 256° |
| 2026-04-24 22:16 | 38.33468 | 59.83259 | 26824 ft | 341 kts | 256° |
| 2026-04-24 22:16 | 38.32849 | 59.80349 | 26390 ft | 337 kts | 256° |
| 2026-04-24 22:16 | 38.32236 | 59.77496 | 25965 ft | 332 kts | 256° |
| 2026-04-24 22:16 | 38.31637 | 59.74714 | 25550 ft | 328 kts | 256° |
| 2026-04-24 22:17 | 38.31034 | 59.71905 | 25136 ft | 332 kts | 256° |
| 2026-04-24 22:17 | 38.30422 | 59.69062 | 24704 ft | 333 kts | 256° |
| 2026-04-24 22:17 | 38.29816 | 59.66249 | 24280 ft | 329 kts | 255° |
| 2026-04-24 22:17 | 38.29218 | 59.63480 | 23864 ft | 324 kts | 255° |
| 2026-04-24 22:18 | 38.28619 | 59.60708 | 23447 ft | 320 kts | 255° |
| 2026-04-24 22:18 | 38.28034 | 59.58003 | 23041 ft | 317 kts | 255° |
| 2026-04-24 22:18 | 38.27446 | 59.55289 | 22638 ft | 323 kts | 255° |
| 2026-04-24 22:18 | 38.26846 | 59.52523 | 22213 ft | 320 kts | 255° |
| 2026-04-24 22:19 | 38.26261 | 59.49831 | 21807 ft | 316 kts | 255° |
| 2026-04-24 22:19 | 38.25683 | 59.47169 | 21405 ft | 312 kts | 255° |
| 2026-04-24 22:19 | 38.25106 | 59.44520 | 21004 ft | 309 kts | 255° |
| 2026-04-24 22:19 | 38.24532 | 59.41886 | 20610 ft | 313 kts | 255° |
| 2026-04-24 22:20 | 38.23949 | 59.39211 | 20199 ft | 312 kts | 255° |
| 2026-04-24 22:20 | 38.23375 | 59.36586 | 19801 ft | 308 kts | 255° |
| 2026-04-24 22:20 | 38.22806 | 59.33967 | 19365 ft | 306 kts | 255° |
| 2026-04-24 22:20 | 38.22396 | 59.31346 | 18883 ft | 305 kts | 262° |
| 2026-04-24 22:21 | 38.22174 | 59.28661 | 18470 ft | 305 kts | 263° |
| 2026-04-24 22:21 | 38.21945 | 59.25997 | 18070 ft | 302 kts | 263° |
| 2026-04-24 22:21 | 38.21714 | 59.23362 | 17683 ft | 298 kts | 263° |
| 2026-04-24 22:21 | 38.21498 | 59.20785 | 17306 ft | 295 kts | 263° |
| 2026-04-24 22:22 | 38.21285 | 59.18198 | 16933 ft | 298 kts | 263° |
| 2026-04-24 22:22 | 38.21066 | 59.15567 | 16541 ft | 298 kts | 263° |
| 2026-04-24 22:22 | 38.20853 | 59.12974 | 16159 ft | 295 kts | 263° |
| 2026-04-24 22:22 | 38.20640 | 59.10397 | 15780 ft | 291 kts | 263° |
| 2026-04-24 22:23 | 38.20428 | 59.07840 | 15405 ft | 288 kts | 263° |
| 2026-04-24 22:23 | 38.20219 | 59.05327 | 15040 ft | 292 kts | 263° |
| 2026-04-24 22:23 | 38.20006 | 59.02760 | 14655 ft | 291 kts | 263° |
| 2026-04-24 22:23 | 38.19794 | 59.00207 | 14277 ft | 288 kts | 263° |
| 2026-04-24 22:24 | 38.19585 | 58.97708 | 13908 ft | 285 kts | 263° |
| 2026-04-24 22:24 | 38.19378 | 58.95235 | 13543 ft | 281 kts | 263° |
| 2026-04-24 22:24 | 38.19169 | 58.92750 | 13180 ft | 285 kts | 263° |
| 2026-04-24 22:24 | 38.18960 | 58.90263 | 12804 ft | 285 kts | 263° |
| 2026-04-24 22:25 | 38.18750 | 58.87777 | 12435 ft | 281 kts | 263° |
| 2026-04-24 22:25 | 38.18541 | 58.85308 | 12068 ft | 278 kts | 263° |
| 2026-04-24 22:25 | 38.18335 | 58.82872 | 11707 ft | 275 kts | 263° |
| 2026-04-24 22:25 | 38.18132 | 58.80480 | 11352 ft | 274 kts | 263° |
| 2026-04-24 22:26 | 38.17926 | 58.78073 | 10996 ft | 278 kts | 263° |
| 2026-04-24 22:26 | 38.17719 | 58.75641 | 10628 ft | 275 kts | 263° |
| 2026-04-24 22:26 | 38.17514 | 58.73251 | 10284 ft | 271 kts | 263° |
| 2026-04-24 22:26 | 38.17313 | 58.70905 | 10090 ft | 262 kts | 263° |
| 2026-04-24 22:27 | 38.17119 | 58.68648 | 9947 ft | 251 kts | 264° |
| 2026-04-24 22:27 | 38.16929 | 58.66457 | 9649 ft | 248 kts | 264° |
| 2026-04-24 22:27 | 38.16742 | 58.64294 | 9353 ft | 245 kts | 264° |
| 2026-04-24 22:27 | 38.16558 | 58.62168 | 9063 ft | 242 kts | 264° |
| 2026-04-24 22:28 | 38.16373 | 58.60036 | 8777 ft | 244 kts | 264° |
| 2026-04-24 22:28 | 38.16186 | 58.57887 | 8480 ft | 245 kts | 264° |
| 2026-04-24 22:28 | 38.16000 | 58.55757 | 8190 ft | 242 kts | 264° |
| 2026-04-24 22:28 | 38.15816 | 58.53647 | 7903 ft | 239 kts | 264° |
| 2026-04-24 22:29 | 38.15447 | 58.49433 | 7330 ft | 242 kts | 265° |
| 2026-04-24 22:29 | 38.15261 | 58.47322 | 7040 ft | 239 kts | 265° |
| 2026-04-24 22:29 | 38.15079 | 58.45256 | 6781 ft | 235 kts | 265° |
| 2026-04-24 22:30 | 38.14899 | 58.43217 | 6569 ft | 229 kts | 265° |
| 2026-04-24 22:30 | 38.14723 | 58.41230 | 6284 ft | 223 kts | 265° |
| 2026-04-24 22:30 | 38.14552 | 58.39300 | 6023 ft | 216 kts | 265° |
| 2026-04-24 22:30 | 38.14387 | 58.37436 | 5770 ft | 210 kts | 265° |
| 2026-04-24 22:31 | 38.14225 | 58.35617 | 5522 ft | 204 kts | 265° |
| 2026-04-24 22:31 | 38.14069 | 58.33863 | 5282 ft | 198 kts | 265° |
| 2026-04-24 22:31 | 38.13915 | 58.32138 | 5047 ft | 195 kts | 265° |
| 2026-04-24 22:31 | 38.13762 | 58.30424 | 4814 ft | 195 kts | 265° |
| 2026-04-24 22:32 | 38.13613 | 58.28771 | 4597 ft | 184 kts | 265° |
| 2026-04-24 22:32 | 38.13472 | 58.27196 | 4403 ft | 173 kts | 265° |
| 2026-04-24 22:32 | 38.13338 | 58.25698 | 4150 ft | 171 kts | 265° |
| 2026-04-24 22:32 | 38.13202 | 58.24189 | 3819 ft | 171 kts | 265° |
| 2026-04-24 22:33 | 38.13068 | 58.22696 | 3605 ft | 172 kts | 266° |
| 2026-04-24 22:33 | 38.12933 | 58.21199 | 3507 ft | 171 kts | 266° |
| 2026-04-24 22:33 | 38.12797 | 58.19694 | 3458 ft | 173 kts | 266° |
| 2026-04-24 22:33 | 38.12791 | 58.19632 | 3456 ft | 173 kts | 265° |
| 2026-04-24 22:34 | 38.12770 | 58.19405 | 3447 ft | 173 kts | 264° |
| 2026-04-24 22:34 | 38.12309 | 58.18001 | 3333 ft | 180 kts | 226° |
| 2026-04-24 22:34 | 38.11177 | 58.17422 | 3196 ft | 174 kts | 175° |
| 2026-04-24 22:34 | 38.10033 | 58.17838 | 3092 ft | 175 kts | 162° |
| 2026-04-24 22:35 | 38.08857 | 58.18117 | 2941 ft | 171 kts | 174° |
| 2026-04-24 22:35 | 38.07695 | 58.18318 | 2758 ft | 165 kts | 172° |
| 2026-04-24 22:35 | 38.06576 | 58.18537 | 2617 ft | 163 kts | 171° |
| 2026-04-24 22:35 | 38.05502 | 58.18928 | 2470 ft | 163 kts | 145° |
| 2026-04-24 22:36 | 38.04894 | 58.20130 | 2543 ft | 167 kts | 111° |
| 2026-04-24 22:36 | 38.04422 | 58.21437 | 2495 ft | 156 kts | 123° |
| 2026-04-24 22:36 | 38.03882 | 58.22607 | 2488 ft | 153 kts | 121° |
| 2026-04-24 22:36 | 38.03360 | 58.23771 | 2518 ft | 152 kts | 121° |
| 2026-04-24 22:37 | 38.02835 | 58.24950 | 2263 ft | 151 kts | 121° |
| 2026-04-24 22:37 | 38.02332 | 58.26081 | 2058 ft | 148 kts | 121° |
| 2026-04-24 22:37 | 38.01827 | 58.27216 | 1860 ft | 148 kts | 121° |
| 2026-04-24 22:37 | 38.01320 | 58.28351 | 1657 ft | 148 kts | 121° |
| 2026-04-24 22:38 | 38.00807 | 58.29501 | 1423 ft | 149 kts | 121° |
| 2026-04-24 22:38 | 38.00301 | 58.30637 | 1211 ft | 149 kts | 120° |
| 2026-04-24 22:38 | 37.99798 | 58.31773 | 1023 ft | 147 kts | 120° |
| 2026-04-24 22:38 | 37.99294 | 58.32916 | 833 ft | 146 kts | 121° |
| 2026-04-24 22:39 | 37.98789 | 58.34034 | 706 ft | 143 kts | 120° |
| 2026-04-24 22:39 | 37.98381 | 58.34944 | 699 ft | 86 kts | 118° |
| 2026-04-24 22:39 | 37.98165 | 58.35428 | 699 ft | 49 kts | 118° |
| 2026-04-24 22:39 | 37.97983 | 58.35838 | 699 ft | 56 kts | 120° |
| 2026-04-24 22:40 | 37.97786 | 58.36282 | 699 ft | 49 kts | 119° |
| 2026-04-24 22:40 | 37.97652 | 58.36562 | 699 ft | 19 kts | 143° |
| 2026-04-24 22:40 | 37.97542 | 58.36557 | 699 ft | 14 kts | 204° |
| 2026-04-24 22:40 | 37.97427 | 58.36556 | 699 ft | 21 kts | 150° |
| 2026-04-24 22:41 | 37.97264 | 58.36678 | 699 ft | 32 kts | 149° |
| 2026-04-24 22:41 | 37.97064 | 58.36823 | 699 ft | 33 kts | 150° |
| 2026-04-24 22:41 | 37.96868 | 58.36972 | 699 ft | 30 kts | 135° |
| 2026-04-24 22:41 | 37.96780 | 58.37102 | 699 ft | 27 kts | 133° |
| 2026-04-24 22:42 | 37.96753 | 58.37255 | 699 ft | 4 kts | 45° |
| 2026-04-24 22:42 | 37.96757 | 58.37275 | 699 ft | 1 kts | 112° |
| 2026-04-24 22:42 | 37.96742 | 58.37304 | 699 ft | 5 kts | 127° |
| 2026-04-24 22:42 | 37.96723 | 58.37335 | 699 ft | 0 kts | 127° |